Time;durP1;ratioP1;P1;durP2;ratioP2;P2;SDS_P1;SDS_P2;PMS_P1;PMS_P2;Temp;Humidity;BMP_temperature;BMP_pressure;BME280_temperature;BME280_humidity;BME280_pressure;Samples;Min_cycle;Max_cycle;Signal;HPM_P1;HPM_P2
2022/07/02 00:01:30;;;;;;;7.43;2.03;;;;;;;12.34;89.59;102041.66;4804559;29;20109;-86
2022/07/02 00:04:02;;;;;;;9.53;1.90;;;;;;;12.31;90.44;102036.78;4804572;29;20031;-86
2022/07/02 00:06:30;;;;;;;6.80;1.95;;;;;;;12.30;89.82;102050.44;4787300;29;20114;-86
2022/07/02 00:08:55;;;;;;;6.05;1.98;;;;;;;12.25;90.51;102051.16;4804351;29;20462;-86
2022/07/02 00:11:21;;;;;;;5.07;1.90;;;;;;;12.20;89.97;102051.88;4812990;29;20121;-86
2022/07/02 00:13:49;;;;;;;8.55;1.90;;;;;;;12.18;90.07;102058.53;4820323;29;20028;-86
2022/07/02 00:16:14;;;;;;;4.43;1.80;;;;;;;12.08;90.55;102043.88;4821802;29;20427;-87
2022/07/02 00:18:40;;;;;;;7.65;2.08;;;;;;;12.04;90.96;102039.22;4821165;29;20109;-87
2022/07/02 00:21:07;;;;;;;4.63;1.53;;;;;;;12.04;91.38;102050.75;4820543;29;20523;-87
2022/07/02 00:23:32;;;;;;;7.75;1.90;;;;;;;11.94;91.05;102045.16;4811269;29;20043;-86
2022/07/02 00:26:08;;;;;;;3.70;1.88;;;;;;;11.98;91.26;102048.97;4804112;29;20399;-86
2022/07/02 00:28:40;;;;;;;6.13;1.67;;;;;;;11.96;91.69;102045.72;4803191;29;20031;-86
2022/07/02 00:31:15;;;;;;;4.03;1.70;;;;;;;11.89;91.56;102045.03;4802604;29;20382;-85
2022/07/02 00:33:43;;;;;;;2.70;1.55;;;;;;;11.85;91.68;102047.41;4802782;29;20083;-86
2022/07/02 00:38:33;;;;;;;8.83;2.17;;;;;;;11.70;91.91;102033.63;4869901;24;20113;-87
2022/07/02 00:41:02;;;;;;;6.32;1.90;;;;;;;11.66;92.46;102042.16;4857982;29;20294;-86
2022/07/02 00:43:31;;;;;;;4.53;1.87;;;;;;;11.66;93.08;102055.59;4856416;29;20026;-87
2022/07/02 00:46:00;;;;;;;5.38;1.77;;;;;;;11.63;93.04;102058.75;4858018;29;20049;-86
2022/07/02 00:48:26;;;;;;;3.78;1.73;;;;;;;11.56;93.60;102049.19;4846003;24;20045;-86
2022/07/02 00:50:52;;;;;;;5.20;1.90;;;;;;;11.51;93.31;102053.38;4857097;29;20029;-86
2022/07/02 00:53:17;;;;;;;5.07;2.00;;;;;;;11.46;93.63;102044.41;4857909;29;20030;-86
2022/07/02 00:55:42;;;;;;;4.33;1.90;;;;;;;11.48;94.33;102050.34;4857017;29;20037;-86
2022/07/02 00:58:08;;;;;;;4.10;2.35;;;;;;;11.43;94.37;102037.59;4856192;23;20058;-86
2022/07/02 01:00:33;;;;;;;6.07;2.33;;;;;;;11.43;94.05;102048.34;4820297;29;20085;-85
2022/07/02 01:02:59;;;;;;;7.67;2.77;;;;;;;11.39;94.63;102041.00;4821275;29;20034;-87
2022/07/02 01:05:42;;;;;;;5.47;2.63;;;;;;;11.30;95.16;102040.53;4821327;29;20050;-86
2022/07/02 01:10:52;;;;;;;3.97;2.47;;;;;;;11.26;95.01;102026.78;4802451;29;20094;-86
2022/07/02 01:13:18;;;;;;;3.80;2.77;;;;;;;11.27;95.34;102028.41;4835206;29;20302;-86
2022/07/02 01:15:43;;;;;;;4.80;3.00;;;;;;;11.21;95.07;102030.16;4839153;29;20041;-87
2022/07/02 01:18:10;;;;;;;4.10;3.00;;;;;;;11.22;95.78;102036.31;4839184;29;20030;-86
2022/07/02 01:20:36;;;;;;;6.03;3.00;;;;;;;11.25;95.51;102030.50;4827621;29;20291;-85
2022/07/02 01:23:04;;;;;;;5.10;2.97;;;;;;;11.28;95.95;102043.47;4802845;29;20035;-86
2022/07/02 01:25:30;;;;;;;6.15;2.88;;;;;;;11.29;95.74;102033.53;4802459;29;20675;-87
2022/07/02 01:27:55;;;;;;;5.30;3.10;;;;;;;11.23;95.45;102035.28;4813560;29;20042;-85
2022/07/02 01:30:20;;;;;;;5.57;2.90;;;;;;;11.23;96.22;102031.78;4838816;29;20455;-85
2022/07/02 01:32:46;;;;;;;4.90;2.87;;;;;;;11.17;96.07;102028.16;4838771;29;20432;-86
2022/07/02 01:35:11;;;;;;;6.13;3.10;;;;;;;11.19;96.43;102042.97;4827384;29;20780;-86
2022/07/02 01:37:38;;;;;;;7.30;2.90;;;;;;;11.20;96.32;102033.88;4820366;29;20034;-87
2022/07/02 01:40:04;;;;;;;8.40;2.90;;;;;;;11.19;96.62;102032.25;4819352;29;20052;-87
2022/07/02 01:42:33;;;;;;;5.18;3.08;;;;;;;11.14;96.50;102033.97;4820399;29;20042;-86
2022/07/02 01:44:58;;;;;;;7.97;2.67;;;;;;;11.07;96.60;102028.72;4810688;29;20086;-86
2022/07/02 01:47:24;;;;;;;7.73;2.70;;;;;;;11.05;96.75;102045.06;4829287;29;20296;-86
2022/07/02 01:49:49;;;;;;;6.00;2.83;;;;;;;10.90;97.05;102037.44;4816516;29;20444;-86
2022/07/02 01:52:15;;;;;;;6.33;2.43;;;;;;;10.88;97.58;102036.06;4802044;29;20130;-86
2022/07/02 01:54:41;;;;;;;4.28;2.40;;;;;;;10.89;97.94;102035.81;4802128;29;20176;-86
2022/07/02 01:57:07;;;;;;;4.78;2.70;;;;;;;10.89;97.66;102038.50;4801983;29;20046;-85
2022/07/02 01:59:33;;;;;;;10.17;2.53;;;;;;;10.85;97.85;102034.66;4802147;29;20031;-85
2022/07/02 02:02:03;;;;;;;7.30;2.75;;;;;;;10.85;98.20;102031.16;4808152;29;20043;-86
2022/07/02 02:04:28;;;;;;;10.10;2.50;;;;;;;10.82;97.52;102036.97;4801987;29;20092;-86
2022/07/02 02:06:54;;;;;;;5.93;2.85;;;;;;;10.77;98.27;102026.94;4802400;29;20039;-85
2022/07/02 02:09:19;;;;;;;4.77;2.70;;;;;;;10.77;98.19;102031.50;4819603;29;20151;-86
2022/07/02 02:11:45;;;;;;;9.17;2.57;;;;;;;10.72;98.26;102033.00;4831124;29;20113;-86
2022/07/02 02:14:10;;;;;;;8.57;2.75;;;;;;;10.66;98.93;102030.41;4837284;29;20173;-85
2022/07/02 02:16:36;;;;;;;7.77;2.73;;;;;;;10.62;99.08;102030.03;4818886;29;20042;-85
2022/07/02 02:19:02;;;;;;;8.30;2.60;;;;;;;10.63;99.27;102028.97;4820400;29;20037;-85
2022/07/02 02:21:28;;;;;;;8.02;2.60;;;;;;;10.67;99.41;102030.16;4818875;29;20054;-85
2022/07/02 02:23:55;;;;;;;6.47;2.70;;;;;;;10.71;99.38;102033.19;4820850;29;20483;-86
2022/07/02 02:26:21;;;;;;;7.95;2.55;;;;;;;10.74;99.67;102033.59;4823446;29;20034;-86
2022/07/02 02:28:47;;;;;;;4.55;2.40;;;;;;;10.76;99.12;102038.69;4818522;29;20047;-86
2022/07/02 02:31:21;;;;;;;6.60;2.57;;;;;;;10.77;99.24;102039.53;4836963;29;20034;-86
2022/07/02 02:33:46;;;;;;;7.43;2.55;;;;;;;10.83;99.27;102039.44;4805272;29;20042;-86
2022/07/02 02:36:14;;;;;;;8.40;2.83;;;;;;;10.93;99.44;102038.03;4815418;29;20399;-86
2022/07/02 02:38:40;;;;;;;3.80;2.65;;;;;;;10.94;99.40;102035.16;4816096;29;20677;-91
2022/07/02 02:41:07;;;;;;;6.88;2.90;;;;;;;11.04;99.26;102027.34;4788854;29;20030;-90
2022/07/02 02:43:36;;;;;;;7.50;3.20;;;;;;;11.16;99.22;102032.72;4815736;29;20399;-90
2022/07/02 02:46:02;;;;;;;7.40;3.20;;;;;;;11.21;99.31;102027.47;4822922;29;20311;-90
2022/07/02 02:48:37;;;;;;;5.40;3.30;;;;;;;11.34;98.18;102031.78;4822182;29;20052;-90
2022/07/02 02:51:04;;;;;;;5.60;2.65;;;;;;;11.45;98.74;102032.03;4820314;29;20082;-88
2022/07/02 02:53:30;;;;;;;7.13;2.92;;;;;;;11.52;98.22;102035.38;4823142;29;20050;-87
2022/07/02 02:55:56;;;;;;;7.97;3.00;;;;;;;11.57;98.52;102032.81;4823457;29;20551;-87
2022/07/02 02:58:22;;;;;;;7.80;3.08;;;;;;;11.69;97.91;102027.44;4822526;29;20727;-88
2022/07/02 03:00:47;;;;;;;7.53;3.00;;;;;;;11.71;97.77;102027.19;4821243;29;20135;-91
2022/07/02 03:03:15;;;;;;;7.45;2.95;;;;;;;11.76;96.96;102036.19;4822353;29;20038;-89
2022/07/02 03:05:40;;;;;;;6.23;2.70;;;;;;;11.79;96.74;102045.63;4822517;29;20035;-88
2022/07/02 03:08:05;;;;;;;5.77;2.40;;;;;;;11.73;96.56;102044.72;4823020;29;20704;-89
2022/07/02 03:10:31;;;;;;;5.93;2.50;;;;;;;11.69;96.87;102037.34;4814329;29;20037;-89
2022/07/02 03:12:56;;;;;;;9.30;2.50;;;;;;;11.62;97.11;102045.53;4805943;29;20118;-92
2022/07/02 03:15:21;;;;;;;7.57;2.57;;;;;;;11.57;96.50;102046.25;4817405;29;20158;-91
2022/07/02 03:17:47;;;;;;;5.37;2.33;;;;;;;11.32;96.01;102030.38;4870976;23;20050;-90
2022/07/02 03:20:12;;;;;;;7.13;2.70;;;;;;;11.23;96.82;102037.97;4840746;29;20286;-92
2022/07/02 03:22:37;;;;;;;7.47;2.70;;;;;;;11.18;97.10;102049.41;4841053;29;20398;-91
2022/07/02 03:25:03;;;;;;;5.50;2.67;;;;;;;11.16;97.56;102058.72;4838867;29;20041;-91
2022/07/02 03:27:30;;;;;;;5.05;2.53;;;;;;;11.11;97.86;102055.91;4831377;29;20039;-91
2022/07/02 03:29:56;;;;;;;4.20;2.40;;;;;;;11.03;98.02;102049.03;4823696;29;20132;-91
2022/07/02 03:32:25;;;;;;;6.30;2.70;;;;;;;11.07;98.93;102060.91;4836638;29;20299;-91
2022/07/02 03:34:52;;;;;;;5.22;2.60;;;;;;;11.02;98.57;102066.16;4841767;29;20030;-91
2022/07/02 03:37:18;;;;;;;8.35;2.58;;;;;;;11.00;98.25;102063.69;4839606;29;20037;-93
2022/07/02 03:39:43;;;;;;;7.15;2.65;;;;;;;10.96;98.13;102059.84;4822808;29;20030;-93
2022/07/02 03:42:09;;;;;;;3.80;2.40;;;;;;;10.93;98.42;102064.84;4838720;29;20030;-92
2022/07/02 03:44:35;;;;;;;5.47;2.53;;;;;;;11.00;98.87;102074.44;4824608;29;20178;-93
2022/07/02 03:47:00;;;;;;;3.70;2.27;;;;;;;11.12;99.36;102073.66;4838251;29;20033;-92
2022/07/02 03:49:27;;;;;;;3.87;2.30;;;;;;;11.18;99.30;102076.22;4840112;29;20081;-93
2022/07/02 03:54:18;;;;;;;4.25;2.50;;;;;;;11.35;99.03;102070.97;4911573;24;20099;-93
2022/07/02 03:56:43;;;;;;;5.10;2.27;;;;;;;11.40;98.54;102064.09;4814950;29;20035;-93
2022/07/02 03:59:08;;;;;;;3.83;2.30;;;;;;;11.47;97.90;102070.19;4822576;29;20056;-94
2022/07/02 04:01:33;;;;;;;4.13;2.40;;;;;;;11.47;97.83;102072.88;4821610;29;20118;-93
2022/07/02 04:03:59;;;;;;;4.72;2.40;;;;;;;11.43;97.34;102071.69;4821525;29;20034;-93
2022/07/02 04:06:24;;;;;;;6.33;2.40;;;;;;;11.42;97.86;102070.84;4820796;29;20087;-93
2022/07/02 04:08:49;;;;;;;5.87;2.70;;;;;;;11.41;97.30;102063.84;4822688;29;20042;-92
2022/07/02 04:11:15;;;;;;;4.87;2.20;;;;;;;11.48;97.52;102072.63;4833044;29;20042;-94
2022/07/02 04:13:40;;;;;;;7.37;2.60;;;;;;;11.47;97.61;102072.88;4824462;29;20046;-94
2022/07/02 04:16:05;;;;;;;3.70;2.40;;;;;;;11.58;97.91;102082.78;4809290;29;20030;-95
2022/07/02 04:18:31;;;;;;;4.73;2.40;;;;;;;11.62;97.34;102075.06;4804028;29;20826;-92
2022/07/02 04:20:56;;;;;;;7.17;2.40;;;;;;;11.77;96.84;102079.97;4808480;29;20054;-92
2022/07/02 04:23:27;;;;;;;5.63;2.20;;;;;;;11.89;96.52;102078.06;4819352;29;20027;-93
2022/07/02 04:26:30;;;;;;;7.90;2.55;;;;;;;11.81;95.77;102048.91;4805502;29;20031;-92
2022/07/02 04:29:01;;;;;;;7.72;2.13;;;;;;;11.97;94.69;102048.19;4809616;29;20043;-93
2022/07/02 04:31:36;;;;;;;4.97;2.03;;;;;;;12.23;93.28;102072.09;4814580;29;20046;-93
2022/07/02 04:34:01;;;;;;;5.13;2.20;;;;;;;12.21;93.31;102069.66;4811813;29;20034;-93
2022/07/02 04:36:54;;;;;;;7.13;2.50;;;;;;;12.14;93.33;102065.47;4820152;29;20030;-93
2022/07/02 04:39:19;;;;;;;4.72;2.15;;;;;;;12.11;93.96;102066.75;4817952;29;20022;-93
2022/07/02 04:41:51;;;;;;;5.63;2.57;;;;;;;12.23;94.47;102070.19;4821432;29;20041;-93
2022/07/02 04:44:38;;;;;;;7.72;2.65;;;;;;;12.50;94.18;102083.09;4822291;29;20421;-93
2022/07/02 04:47:06;;;;;;;4.75;2.30;;;;;;;12.58;92.90;102071.13;4819718;29;20062;-93
2022/07/02 04:49:37;;;;;;;4.25;2.42;;;;;;;12.62;92.41;102058.00;4821389;29;20464;-93
2022/07/02 04:52:03;;;;;;;5.37;2.70;;;;;;;13.20;91.77;102084.81;4820694;29;20031;-92
2022/07/02 04:54:29;;;;;;;6.00;2.40;;;;;;;14.67;86.57;102082.72;4820184;29;20428;-93
2022/07/02 04:56:54;;;;;;;8.95;2.15;;;;;;;16.14;79.98;102085.09;4820787;29;20038;-92
2022/07/02 04:59:19;;;;;;;3.33;2.10;;;;;;;17.36;74.05;102090.13;4821476;29;20078;-93
2022/07/02 05:01:46;;;;;;;6.57;1.93;;;;;;;17.63;70.49;102093.59;4821714;29;20037;-93
2022/07/02 05:04:11;;;;;;;5.00;2.30;;;;;;;17.33;70.60;102092.59;4821915;29;20031;-92
2022/07/02 05:06:39;;;;;;;6.27;1.73;;;;;;;17.64;71.41;102101.47;4820162;29;20031;-92
2022/07/02 05:09:04;;;;;;;3.92;2.10;;;;;;;18.36;67.72;102089.53;4820418;29;20041;-93
2022/07/02 05:11:30;;;;;;;6.10;1.67;;;;;;;18.48;67.24;102093.84;4820448;29;20035;-94
2022/07/02 05:13:56;;;;;;;5.60;2.00;;;;;;;19.16;66.02;102093.09;4821124;29;20070;-93
2022/07/02 05:21:43;;;;;;;2.92;1.80;;;;;;;21.63;59.91;102093.50;4664302;27;20069;-93
2022/07/02 05:24:12;;;;;;;4.38;1.83;;;;;;;21.90;54.54;102075.53;4839357;29;20040;-96
2022/07/02 05:26:43;;;;;;;4.13;1.85;;;;;;;22.30;53.76;102099.50;4832108;29;20042;-96
2022/07/02 05:29:08;;;;;;;9.93;1.80;;;;;;;22.79;52.24;102105.22;4839143;29;20276;-94
2022/07/02 05:31:50;;;;;;;7.00;2.10;;;;;;;23.37;53.88;102099.16;4837661;29;20085;-92
2022/07/02 05:35:07;;;;;;;8.70;2.05;;;;;;;22.99;54.46;102094.91;4824594;29;20046;-92
2022/07/02 05:37:32;;;;;;;2.70;1.90;;;;;;;22.58;51.01;102091.22;4838517;23;20129;-94
2022/07/02 05:43:23;;;;;;;2.92;2.10;;;;;;;23.37;48.20;102083.53;4803076;29;20050;-96
2022/07/02 05:48:36;;;;;;;4.45;1.95;;;;;;;23.98;50.40;102110.31;5366595;23;20073;-86
2022/07/02 05:51:06;;;;;;;3.57;1.80;;;;;;;23.96;46.82;102104.34;4837893;29;20062;-85
2022/07/02 05:53:31;;;;;;;3.33;1.80;;;;;;;24.06;46.18;102102.47;4830997;29;20707;-87
2022/07/02 05:58:32;;;;;;;6.93;1.60;;;;;;;23.51;45.79;102112.72;4828213;24;20067;-87
2022/07/02 06:00:57;;;;;;;2.63;1.10;;;;;;;23.32;47.05;102112.94;4822964;29;20095;-87
2022/07/02 06:03:26;;;;;;;3.10;1.03;;;;;;;23.06;48.05;102114.41;4823939;29;20018;-87
2022/07/02 06:08:38;;;;;;;5.22;1.58;;;;;;;22.80;46.83;102106.84;4805601;29;20710;-87
2022/07/02 06:11:03;;;;;;;6.50;1.33;;;;;;;22.45;47.49;102109.31;4817760;29;20125;-88
2022/07/02 06:13:32;;;;;;;4.67;1.40;;;;;;;22.07;48.04;102106.81;4817201;29;20423;-87
2022/07/02 06:16:06;;;;;;;6.53;1.63;;;;;;;21.85;49.66;102105.63;4823801;29;20399;-87
2022/07/02 06:18:31;;;;;;;3.63;1.33;;;;;;;21.43;48.81;102110.22;4823120;29;20034;-87
2022/07/02 06:20:56;;;;;;;3.77;1.27;;;;;;;21.04;49.94;102104.09;4823360;29;20336;-87
2022/07/02 06:23:22;;;;;;;4.93;1.27;;;;;;;20.81;50.98;102095.72;4822236;29;20038;-86
2022/07/02 06:28:20;;;;;;;3.55;1.05;;;;;;;20.20;50.75;102108.28;5432560;23;20113;-86
2022/07/02 06:30:45;;;;;;;2.30;1.02;;;;;;;20.01;49.53;102109.06;4859977;29;20113;-85
2022/07/02 06:33:10;;;;;;;1.70;0.87;;;;;;;19.84;51.88;102109.50;4843077;29;20133;-85
2022/07/02 06:35:40;;;;;;;4.60;0.80;;;;;;;19.88;49.94;102121.47;4859051;29;20041;-86
2022/07/02 06:38:06;;;;;;;1.95;0.85;;;;;;;19.91;52.83;102114.63;4901125;23;20055;-86
2022/07/02 06:40:32;;;;;;;2.00;0.90;;;;;;;20.00;51.49;102115.63;4814032;29;20518;-86
2022/07/02 06:42:57;;;;;;;2.30;0.80;;;;;;;20.07;50.29;102116.09;4824334;29;20099;-88
2022/07/02 06:45:49;;;;;;;2.27;0.90;;;;;;;20.51;51.98;102116.03;4999146;23;20050;-86
2022/07/02 06:48:14;;;;;;;3.65;1.00;;;;;;;20.36;51.14;102107.00;4836654;29;20030;-83
2022/07/02 06:50:39;;;;;;;1.33;0.73;;;;;;;20.35;50.46;102110.00;4840868;29;20077;-88
2022/07/02 06:53:04;;;;;;;4.17;1.10;;;;;;;20.00;50.98;102120.22;4836241;29;20022;-90
2022/07/02 06:55:30;;;;;;;3.53;0.93;;;;;;;19.82;50.35;102114.41;4832140;29;20296;-88
2022/07/02 07:01:14;;;;;;;3.55;0.80;;;;;;;19.62;52.18;102110.03;5291092;24;20511;-88
2022/07/02 07:04:17;;;;;;;3.15;1.00;;;;;;;19.83;52.76;102110.59;4839629;29;20061;-90
2022/07/02 07:07:00;;;;;;;2.60;0.73;;;;;;;19.79;51.75;102094.06;4840473;29;20033;-88
2022/07/02 07:09:27;;;;;;;3.23;1.10;;;;;;;19.89;50.70;102109.47;4838945;29;20357;-89
2022/07/02 07:11:52;;;;;;;2.22;0.90;;;;;;;20.11;53.67;102124.47;4842027;29;20370;-88
2022/07/02 07:14:18;;;;;;;3.78;0.90;;;;;;;20.20;53.25;102121.91;4855888;23;20554;-88
2022/07/02 07:16:44;;;;;;;3.43;0.90;;;;;;;20.22;52.43;102116.97;4831943;29;20139;-87
2022/07/02 07:19:09;;;;;;;1.80;0.80;;;;;;;20.18;50.02;102114.00;4823333;29;20067;-88
2022/07/02 07:21:36;;;;;;;1.27;0.90;;;;;;;20.31;52.92;102103.53;4820315;29;20026;-87
2022/07/02 07:24:02;;;;;;;1.30;0.77;;;;;;;20.34;52.04;102111.91;4822255;29;20491;-88
2022/07/02 07:26:27;;;;;;;2.10;0.77;;;;;;;20.45;48.75;102115.31;4869917;23;20052;-87
2022/07/02 07:28:52;;;;;;;2.15;1.00;;;;;;;20.48;49.87;102120.16;4823992;29;20034;-88
2022/07/02 07:31:20;;;;;;;3.07;0.93;;;;;;;20.49;47.49;102108.16;4840374;29;20470;-87
2022/07/02 07:33:46;;;;;;;3.90;1.17;;;;;;;20.47;48.93;102117.72;4822908;29;20033;-88
2022/07/02 07:36:18;;;;;;;2.83;0.80;;;;;;;20.47;48.68;102106.81;4840200;29;20048;-90
2022/07/02 07:38:44;;;;;;;1.70;0.70;;;;;;;20.48;47.67;102111.16;4831771;29;20368;-87
2022/07/02 07:41:28;;;;;;;1.45;0.70;;;;;;;20.51;49.67;102107.88;4950934;23;20357;-88
2022/07/02 07:43:53;;;;;;;1.73;0.80;;;;;;;20.61;50.11;102112.34;4844731;23;20064;-86
2022/07/02 07:46:20;;;;;;;2.03;1.03;;;;;;;20.68;47.80;102116.31;4837739;29;20042;-87
2022/07/02 07:49:03;;;;;;;1.27;0.75;;;;;;;20.84;49.62;102118.84;4824061;29;20037;-88
2022/07/02 07:51:32;;;;;;;2.47;0.70;;;;;;;20.88;47.19;102120.69;4838476;29;20037;-86
2022/07/02 07:53:57;;;;;;;3.00;0.93;;;;;;;20.83;47.38;102107.16;4830109;29;20038;-88
2022/07/02 07:56:23;;;;;;;2.87;0.87;;;;;;;20.57;49.08;102090.38;4818329;29;20307;-88
2022/07/02 07:58:48;;;;;;;5.23;0.97;;;;;;;20.83;48.61;102096.25;4822235;29;20036;-88
2022/07/02 08:01:38;;;;;;;3.53;0.80;;;;;;;21.08;48.75;102115.19;4833453;29;20516;-88
2022/07/02 08:04:22;;;;;;;2.33;1.00;;;;;;;21.12;49.02;102100.66;4825051;29;20298;-87
2022/07/02 08:06:50;;;;;;;2.92;0.85;;;;;;;21.12;48.51;102102.59;4837140;29;20049;-88
2022/07/02 08:09:18;;;;;;;2.17;0.75;;;;;;;21.32;47.40;102115.03;4835558;29;20149;-87
2022/07/02 08:11:43;;;;;;;7.65;1.15;;;;;;;21.36;46.59;102107.09;4839572;29;20086;-88
2022/07/02 08:14:09;;;;;;;3.63;0.77;;;;;;;21.36;48.89;102104.38;4840223;29;20408;-88
2022/07/02 08:16:34;;;;;;;4.70;1.00;;;;;;;21.48;45.37;102100.03;4837830;29;20034;-87
2022/07/02 08:19:00;;;;;;;2.03;0.95;;;;;;;21.61;46.70;102103.91;5081398;23;20058;-88
2022/07/02 08:21:25;;;;;;;5.13;1.20;;;;;;;21.87;46.48;102105.31;4857822;29;20033;-88
2022/07/02 08:23:51;;;;;;;3.03;0.90;;;;;;;21.81;46.66;102101.09;4852623;29;20034;-88
2022/07/02 08:28:51;;;;;;;2.50;1.00;;;;;;;21.80;48.57;102085.84;5523195;23;20054;-88
2022/07/02 08:31:16;;;;;;;5.60;0.93;;;;;;;21.90;46.79;102102.81;4837459;29;20045;-84
2022/07/02 08:33:42;;;;;;;4.63;1.17;;;;;;;21.90;47.43;102091.91;4838645;29;20042;-84
2022/07/02 08:36:07;;;;;;;2.13;0.90;;;;;;;22.09;47.51;102099.94;4839520;29;20045;-83
2022/07/02 08:49:42;;;;;;;4.53;1.10;;;;;;;22.52;45.69;102098.75;5236817;23;20081;-85
2022/07/02 08:52:12;;;;;;;3.75;1.20;;;;;;;22.73;46.66;102092.00;5192082;23;20053;-84
2022/07/02 08:54:37;;;;;;;2.80;1.10;;;;;;;22.68;45.50;102088.28;4823043;29;20444;-84
2022/07/02 08:57:04;;;;;;;2.37;0.90;;;;;;;22.82;44.25;102080.00;5046367;23;20046;-84
2022/07/02 08:59:37;;;;;;;2.50;1.10;;;;;;;22.71;45.38;102086.84;4839275;29;20034;-83
2022/07/02 09:02:07;;;;;;;2.55;0.90;;;;;;;22.98;46.51;102085.09;4838938;29;20095;-84
2022/07/02 09:04:33;;;;;;;3.53;0.93;;;;;;;23.08;44.29;102079.34;4829836;29;20050;-84
2022/07/02 09:07:02;;;;;;;5.07;1.00;;;;;;;23.27;44.90;102081.91;4820693;29;20018;-84
2022/07/02 09:09:29;;;;;;;4.57;0.90;;;;;;;23.53;45.19;102080.41;4820768;29;20310;-83
2022/07/02 09:12:00;;;;;;;2.42;1.10;;;;;;;23.34;44.19;102066.97;4820972;29;20449;-83
2022/07/02 09:14:27;;;;;;;4.68;1.30;;;;;;;23.11;43.50;102070.53;4838485;29;20056;-84
2022/07/02 09:16:52;;;;;;;4.35;1.30;;;;;;;22.61;44.04;102063.31;4822681;29;20036;-83
2022/07/02 09:19:18;;;;;;;4.53;1.37;;;;;;;22.72;44.89;102063.88;4839206;29;20030;-84
2022/07/02 09:21:48;;;;;;;3.08;1.00;;;;;;;23.07;44.22;102066.00;4827924;29;20034;-84
2022/07/02 09:24:13;;;;;;;5.75;1.40;;;;;;;23.07;44.78;102057.81;4820802;29;20058;-81
2022/07/02 09:26:39;;;;;;;3.42;1.02;;;;;;;23.49;43.62;102054.81;4820774;29;20061;-81
2022/07/02 09:29:04;;;;;;;2.70;1.00;;;;;;;23.64;42.17;102046.16;4823824;29;20038;-81
2022/07/02 09:31:31;;;;;;;1.47;1.00;;;;;;;23.72;43.93;102047.28;4838364;29;20033;-82
2022/07/02 09:33:59;;;;;;;2.63;0.98;;;;;;;24.06;45.18;102045.75;4839599;29;20038;-82
2022/07/02 09:36:34;;;;;;;4.85;1.25;;;;;;;23.90;43.88;102048.94;4824753;29;20027;-82
2022/07/02 09:39:00;;;;;;;2.60;1.70;;;;;;;23.92;42.60;102043.13;4824585;29;20117;-82
2022/07/02 09:41:28;;;;;;;3.27;1.20;;;;;;;23.92;42.65;102037.66;4823614;29;20109;-82
2022/07/02 09:43:59;;;;;;;3.83;1.23;;;;;;;23.92;44.23;102037.66;4824057;29;20507;-82
2022/07/02 09:46:24;;;;;;;3.40;1.25;;;;;;;24.02;41.77;102031.94;4833245;29;20057;-82
2022/07/02 09:49:07;;;;;;;6.03;1.20;;;;;;;24.04;41.82;102035.16;4841298;29;20446;-82
2022/07/02 09:51:32;;;;;;;10.18;1.70;;;;;;;24.29;42.30;102019.03;4842093;29;20449;-81
2022/07/02 09:53:57;;;;;;;3.00;1.20;;;;;;;24.69;41.29;102023.50;4842341;29;20121;-81
2022/07/02 09:56:24;;;;;;;3.83;1.17;;;;;;;24.96;40.88;102027.00;4832312;29;20041;-82
2022/07/02 09:58:50;;;;;;;5.00;1.60;;;;;;;25.09;41.75;102022.44;4816769;29;20034;-82
2022/07/02 10:01:22;;;;;;;3.55;1.20;;;;;;;25.12;40.47;102024.53;4835244;29;20344;-82
2022/07/02 10:03:52;;;;;;;2.53;1.13;;;;;;;24.69;40.39;102019.94;4824325;29;20034;-82
2022/07/02 10:06:19;;;;;;;2.83;1.40;;;;;;;24.87;39.75;102034.44;4839239;29;20057;-82
2022/07/02 10:08:45;;;;;;;2.72;1.30;;;;;;;24.84;40.17;102024.91;4842378;29;20034;-83
2022/07/02 10:11:12;;;;;;;3.80;1.05;;;;;;;24.56;39.86;102019.03;4841683;29;20022;-81
2022/07/02 10:13:39;;;;;;;4.13;1.10;;;;;;;24.32;41.05;102021.13;4840836;29;20109;-82
2022/07/02 10:16:11;;;;;;;3.77;1.13;;;;;;;24.56;41.29;102019.81;5133479;23;20268;-85
2022/07/02 10:18:40;;;;;;;5.78;1.10;;;;;;;24.54;37.93;102013.84;4818873;29;21653;-83
2022/07/02 10:21:07;;;;;;;2.97;1.20;;;;;;;24.52;38.24;102018.06;4820203;29;20728;-83
2022/07/02 10:23:34;;;;;;;2.75;1.30;;;;;;;24.56;38.55;102008.84;4819710;29;20045;-82
2022/07/02 10:28:34;;;;;;;3.38;1.05;;;;;;;24.41;39.52;101998.41;4941581;24;20046;-82
2022/07/02 10:31:00;;;;;;;2.20;1.10;;;;;;;24.90;42.16;102007.19;4835565;29;20447;-83
2022/07/02 10:33:28;;;;;;;3.65;1.15;;;;;;;25.34;39.88;102004.25;4825523;29;20058;-85
2022/07/02 10:38:31;;;;;;;5.50;1.05;;;;;;;26.34;35.67;101993.88;4901014;23;20062;-86
2022/07/02 10:40:57;;;;;;;1.67;0.83;;;;;;;26.72;36.12;102001.88;4823166;29;20054;-83
2022/07/02 10:43:23;;;;;;;2.87;1.20;;;;;;;26.70;35.20;101997.88;4818783;29;20819;-84
2022/07/02 10:45:48;;;;;;;2.25;1.10;;;;;;;26.73;36.61;102006.25;4822745;29;20065;-84
2022/07/02 10:48:17;;;;;;;4.13;1.10;;;;;;;26.19;35.18;102003.56;4819018;29;20034;-85
2022/07/02 10:57:35;;;;;;;1.30;1.10;;;;;;;26.95;36.38;101985.00;4799419;29;20057;-83
2022/07/02 11:03:29;;;;;;;12.30;1.10;;;;;;;27.44;34.66;101967.66;4759780;30;20031;-83
2022/07/02 11:06:21;;;;;;;1.90;1.00;;;;;;;27.16;34.19;101970.31;4812950;29;20676;-82
2022/07/02 11:11:48;;;;;;;1.13;0.98;;;;;;;27.06;35.51;101969.63;5461445;23;20049;-83
2022/07/02 11:14:17;;;;;;;2.10;1.25;;;;;;;26.86;34.18;101985.09;4834611;29;20054;-82
2022/07/02 11:16:53;;;;;;;2.65;0.98;;;;;;;26.91;35.32;101995.06;4818038;29;20027;-82
2022/07/02 11:19:58;;;;;;;4.10;1.00;;;;;;;27.26;34.76;101982.81;4816640;29;20121;-82
2022/07/02 11:22:30;;;;;;;3.20;0.98;;;;;;;27.27;33.88;101970.66;4802221;29;20047;-83
2022/07/02 11:24:55;;;;;;;2.00;1.02;;;;;;;26.92;32.58;101991.16;4809778;29;20031;-84
2022/07/02 11:31:04;;;;;;;3.10;1.20;;;;;;;26.37;35.57;101943.78;4797877;29;20065;-84
2022/07/02 11:34:04;;;;;;;2.50;0.98;;;;;;;26.88;34.99;101973.75;4782902;29;20415;-84
2022/07/02 11:39:13;;;;;;;3.03;0.90;;;;;;;27.72;32.59;101963.38;5002515;23;20045;-84
2022/07/02 11:41:39;;;;;;;1.37;1.00;;;;;;;27.96;32.68;101960.53;4833245;29;20306;-83
2022/07/02 11:44:19;;;;;;;3.13;1.10;;;;;;;27.41;32.86;101962.03;4822008;29;20030;-82
2022/07/02 11:50:27;;;;;;;1.65;0.90;;;;;;;27.57;33.82;101957.44;4837123;29;20129;-84
2022/07/02 11:58:49;;;;;;;3.45;1.30;;;;;;;28.00;32.80;101932.28;5220584;24;20576;-84
2022/07/02 12:02:02;;;;;;;3.63;1.00;;;;;;;27.60;32.33;101951.25;4825706;29;20037;-83
2022/07/02 12:04:47;;;;;;;2.28;0.98;;;;;;;27.24;33.83;101950.13;4806819;29;20032;-84
2022/07/02 12:07:13;;;;;;;4.38;1.00;;;;;;;27.59;32.90;101924.88;4804019;29;20034;-86
2022/07/02 12:10:29;;;;;;;4.13;1.20;;;;;;;28.56;32.67;101939.72;4803460;29;20128;-84
2022/07/02 12:12:55;;;;;;;2.88;0.80;;;;;;;28.75;31.55;101913.41;4726207;30;20045;-83
2022/07/02 12:15:21;;;;;;;1.85;1.15;;;;;;;28.65;31.41;101934.00;4725800;30;20044;-84
2022/07/02 12:17:50;;;;;;;1.37;0.90;;;;;;;28.51;31.71;101943.50;4726524;30;20028;-83
2022/07/02 12:20:21;;;;;;;2.38;1.10;;;;;;;28.59;31.39;101938.19;4726174;30;20506;-83
2022/07/02 12:22:53;;;;;;;7.07;1.35;;;;;;;28.55;31.67;101933.38;4773253;29;20558;-83
2022/07/02 12:27:54;;;;;;;2.92;1.20;;;;;;;28.52;31.46;101914.78;4889343;23;20066;-83
2022/07/02 12:30:20;;;;;;;3.38;1.10;;;;;;;28.74;31.10;101914.56;4823175;29;20033;-84
2022/07/02 12:32:54;;;;;;;1.50;0.90;;;;;;;29.34;31.93;101914.34;4825410;29;20034;-84
2022/07/02 12:59:53;;;;;;;2.72;1.10;;;;;;;29.67;31.62;101890.97;5448991;23;20065;-85
2022/07/02 13:03:05;;;;;;;1.75;1.08;;;;;;;29.75;31.87;101884.44;4814946;29;20050;-84
2022/07/02 13:06:51;;;;;;;4.70;1.30;;;;;;;30.30;31.46;101888.19;4816373;29;20038;-83
2022/07/02 13:08:51;;;;;;;1.00;0.90;;;;;;;29.66;29.31;101867.28;4785780;29;20051;-84
2022/07/02 13:11:22;;;;;;;1.37;0.90;;;;;;;29.22;30.13;101864.78;4802381;29;20034;-83
2022/07/02 13:13:47;;;;;;;2.40;1.30;;;;;;;29.12;30.15;101866.97;4802388;29;20046;-83
2022/07/02 13:16:12;;;;;;;3.27;0.97;;;;;;;29.49;31.11;101865.75;4801458;29;20150;-83
2022/07/02 13:18:38;;;;;;;2.73;0.77;;;;;;;29.67;30.07;101859.81;4800765;29;20070;-83